Time;durP1;ratioP1;P1;durP2;ratioP2;P2;SDS_P1;SDS_P2;PMS_P1;PMS_P2;Temp;Humidity;BMP_temperature;BMP_pressure;BME280_temperature;BME280_humidity;BME280_pressure;Samples;Min_cycle;Max_cycle;Signal;HPM_P1;HPM_P2
2024/01/01 00:00:21;;;;;;;;;;;;;;;;;;6185884;23;19908;-90
2024/01/01 00:02:47;;;;;;;;;;;;;;;;;;6185518;23;19912;-92
2024/01/01 00:05:12;;;;;;;;;;;;;;;;;;6185759;23;19908;-92
2024/01/01 00:07:37;;;;;;;;;;;;;;;;;;6185698;23;19908;-90
2024/01/01 00:10:03;;;;;;;;;;;;;;;;;;6185795;23;20292;-89
2024/01/01 00:12:29;;;;;;;;;;;;;;;;;;6185496;23;20000;-92
2024/01/01 00:14:54;;;;;;;;;;;;;;;;;;6185803;23;19912;-92
2024/01/01 00:17:19;;;;;;;;;;;;;;;;;;6185469;23;19912;-90
2024/01/01 00:19:45;;;;;;;;;;;;;;;;;;6187131;23;20319;-89
2024/01/01 00:22:10;;;;;;;;;;;;;;;;;;6185218;23;19931;-90
2024/01/01 00:24:35;;;;;;;;;;;;;;;;;;6185540;23;19966;-89
2024/01/01 00:27:01;;;;;;;;;;;;;;;;;;6185552;23;19908;-90
2024/01/01 00:29:26;;;;;;;;;;;;;;;;;;6185578;23;19912;-90
2024/01/01 00:31:52;;;;;;;;;;;;;;;;;;6186732;23;19916;-91
2024/01/01 00:34:17;;;;;;;;;;;;;;;;;;6187801;23;20006;-91
2024/01/01 00:36:42;;;;;;;;;;;;;;;;;;6187216;23;20589;-91
2024/01/01 00:39:08;;;;;;;;;;;;;;;;;;6187239;23;19912;-90
2024/01/01 00:41:33;;;;;;;;;;;;;;;;;;6187643;23;19908;-93
2024/01/01 00:43:58;;;;;;;;;;;;;;;;;;6187357;23;19915;-94
2024/01/01 00:46:24;;;;;;;;;;;;;;;;;;6187349;23;20343;-89
2024/01/01 00:48:50;;;;;;;;;;;;;;;;;;6187376;23;19963;-91
2024/01/01 00:51:16;;;;;;;;;;;;;;;;;;6188409;23;19916;-90
2024/01/01 00:53:41;;;;;;;;;;;;;;;;;;6192641;23;19979;-87
2024/01/01 00:56:07;;;;;;;;;;;;;;;;;;6189694;23;19908;-89
2024/01/01 00:58:32;;;;;;;;;;;;;;;;;;6187122;23;19953;-88
2024/01/01 01:00:57;;;;;;;;;;;;;;;;;;6186993;23;19915;-90
2024/01/01 01:03:23;;;;;;;19.23;6.53;;;;;;;;;;6188110;23;20320;-89
2024/01/01 01:05:48;;;;;;;7.68;3.80;;;;;;;;;;6186512;23;20009;-89
2024/01/01 17:36:33;;;;;;;5.20;4.28;;;;;;;;;;6180080;23;20032;-88
2024/01/01 17:38:58;;;;;;;6.25;5.65;;;;;;;;;;6158129;23;20379;-88
2024/01/01 17:41:24;;;;;;;3.45;3.10;;;;;;;;;;6159354;23;20009;-88
2024/01/01 17:43:51;;;;;;;3.28;2.97;;;;;;;;;;6159394;23;20086;-89
2024/01/01 17:46:16;;;;;;;6.20;5.70;;;;;;;;;;6158678;23;20001;-89
2024/01/01 17:48:45;;;;;;;6.55;5.75;;;;;;;;;;6158589;23;20085;-87
2024/01/01 17:51:10;;;;;;;7.03;2.83;;;;;;;;;;6156840;23;20005;-87
2024/01/01 17:53:36;;;;;;;3.55;2.50;;;;;;;;;;6156324;23;20357;-87
2024/01/01 17:56:08;;;;;;;3.85;2.90;;;;;;;;;;6157764;23;20002;-88
2024/01/01 17:58:36;;;;;;;4.00;2.95;;;;;;;;;;6158195;23;20392;-87
2024/01/01 18:01:01;;;;;;;3.03;2.72;;;;;;;;;;6156919;23;20008;-87
2024/01/01 18:03:27;;;;;;;3.85;2.35;;;;;;;;;;6157947;23;20413;-85
2024/01/01 18:05:52;;;;;;;3.30;2.65;;;;;;;;;;6159735;23;20047;-86
2024/01/01 18:08:18;;;;;;;23.30;17.35;;;;;;;;;;6160716;23;20472;-88
2024/01/01 18:10:44;;;;;;;5.25;4.15;;;;;;;;;;6156358;23;20013;-89
2024/01/01 18:13:16;;;;;;;8.43;5.53;;;;;;;;;;6158405;23;20020;-86
2024/01/01 18:15:41;;;;;;;10.15;6.82;;;;;;;;;;6157018;23;19998;-87
2024/01/01 18:18:13;;;;;;;5.45;4.85;;;;;;;;;;6156252;23;20017;-86
2024/01/01 18:20:39;;;;;;;5.90;4.35;;;;;;;;;;6156589;23;20017;-88
2024/01/01 18:23:05;;;;;;;3.03;2.70;;;;;;;;;;6157833;23;20006;-88
2024/01/01 18:25:30;;;;;;;4.97;3.83;;;;;;;;;;6155447;23;20418;-87
2024/01/01 18:27:56;;;;;;;5.93;4.50;;;;;;;;;;6155428;23;20016;-86
2024/01/01 18:30:22;;;;;;;4.55;3.80;;;;;;;;;;6158116;23;20024;-87
2024/01/01 18:32:47;;;;;;;;;;;;;;;;;;6156974;23;19912;-86
2024/01/01 18:35:13;;;;;;;;;;;;;;;;;;6158233;23;19917;-88
2024/01/01 18:37:38;;;;;;;;;;;;;;;;;;6157160;23;20420;-87
2024/01/01 18:40:04;;;;;;;;;;;;;;;;;;6156244;23;20236;-87
2024/01/01 18:42:29;;;;;;;6.47;4.78;;;;;;;;;;6157820;23;19936;-88
2024/01/01 18:44:57;;;;;;;;;;;;;;;;;;6156584;23;20005;-89
2024/01/01 18:47:26;;;;;;;;;;;;;;;;;;6157793;23;19908;-86
2024/01/01 18:49:51;;;;;;;;;;;;;;;;;;6157859;23;19983;-87
2024/01/01 18:52:17;;;;;;;;;;;;;;;;;;6155819;23;19908;-87
2024/01/01 18:54:42;;;;;;;;;;;;;;;;;;6157548;23;19909;-88
2024/01/01 18:57:07;;;;;;;;;;;;;;;;;;6155902;23;19913;-87
2024/01/01 18:59:33;;;;;;;;;;;;;;;;;;6157742;23;19958;-87
2024/01/01 19:01:58;;;;;;;;;;;;;;;;;;6156311;23;19916;-87
2024/01/01 19:04:24;;;;;;;;;;;;;;;;;;6156250;23;19912;-90
2024/01/01 19:06:49;;;;;;;;;;;;;;;;;;6157333;23;19908;-91
2024/01/01 19:09:14;;;;;;;;;;;;;;;;;;6156141;23;19913;-89
2024/01/01 19:11:43;;;;;;;;;;;;;;;;;;6158095;23;19987;-88
2024/01/01 19:14:12;;;;;;;;;;;;;;;;;;6158349;23;19913;-90
2024/01/01 19:16:38;;;;;;;;;;;;;;;;;;6157939;23;19915;-89
2024/01/01 19:19:03;;;;;;;;;;;;;;;;;;6157543;23;19913;-89
2024/01/01 19:21:29;;;;;;;;;;;;;;;;;;6157885;23;19908;-89
2024/01/01 19:23:54;;;;;;;;;;;;;;;;;;6156044;23;19908;-88
2024/01/01 19:26:19;;;;;;;;;;;;;;;;;;6181024;23;19948;-89
2024/01/01 19:28:45;;;;;;;;;;;;;;;;;;6157525;23;19913;-87
2024/01/01 19:31:10;;;;;;;;;;;;;;;;;;6157427;23;19978;-89
2024/01/01 19:33:36;;;;;;;;;;;;;;;;;;6156398;23;19983;-88
2024/01/01 19:36:01;;;;;;;;;;;;;;;;;;6157729;23;19915;-88
2024/01/01 19:38:27;;;;;;;;;;;;;;;;;;6157326;23;19979;-88
2024/01/01 19:40:52;;;;;;;;;;;;;;;;;;6157715;23;19940;-89
2024/01/01 19:43:18;;;;;;;;;;;;;;;;;;6157431;23;19975;-89
2024/01/01 19:45:43;;;;;;;;;;;;;;;;;;6157992;23;19916;-89
2024/01/01 19:48:09;;;;;;;;;;;;;;;;;;6156239;23;19904;-88
2024/01/01 19:50:34;;;;;;;;;;;;;;;;;;6156243;23;19909;-89
2024/01/01 19:52:59;;;;;;;;;;;;;;;;;;6157475;23;20320;-88
2024/01/01 19:55:25;;;;;;;;;;;;;;;;;;6158608;23;19913;-90
2024/01/01 19:57:50;;;;;;;;;;;;;;;;;;6155695;23;20344;-93
2024/01/01 20:00:17;;;;;;;;;;;;;;;;;;6158233;23;20316;-88
2024/01/01 20:02:43;;;;;;;;;;;;;;;;;;6156638;23;19939;-85
2024/01/01 20:05:08;;;;;;;;;;;;;;;;;;6158295;23;20027;-90
2024/01/01 20:07:34;;;;;;;;;;;;;;;;;;6158246;23;19909;-86
2024/01/01 20:09:59;;;;;;;;;;;;;;;;;;6156906;23;20240;-88
2024/01/01 20:12:25;;;;;;;;;;;;;;;;;;6155419;23;19908;-87
2024/01/01 20:14:51;;;;;;;;;;;;;;;;;;6157324;23;19919;-88
2024/01/01 20:17:16;;;;;;;;;;;;;;;;;;6157810;23;19908;-87
2024/01/01 20:19:41;;;;;;;;;;;;;;;;;;6157142;23;19909;-88
2024/01/01 20:22:07;;;;;;;;;;;;;;;;;;6155737;23;19912;-87
2024/01/01 20:24:32;;;;;;;;;;;;;;;;;;6156730;23;20291;-88
2024/01/01 20:26:59;;;;;;;;;;;;;;;;;;6155631;23;20320;-87
2024/01/01 20:29:24;;;;;;;;;;;;;;;;;;6156808;23;19909;-88
2024/01/01 20:31:50;;;;;;;;;;;;;;;;;;6156841;23;19931;-87
2024/01/01 20:34:15;;;;;;;;;;;;;;;;;;6155510;23;19916;-88
2024/01/01 20:36:40;;;;;;;;;;;;;;;;;;6156695;23;20205;-88
2024/01/01 20:39:06;;;;;;;;;;;;;;;;;;6157113;23;19908;-87
2024/01/01 20:41:31;;;;;;;;;;;;;;;;;;6155276;23;20240;-87
2024/01/01 20:43:57;;;;;;;;;;;;;;;;;;6157406;23;19971;-86
2024/01/01 20:46:22;;;;;;;;;;;;;;;;;;6157090;23;19908;-86
2024/01/01 20:48:48;;;;;;;;;;;;;;;;;;6156757;23;19908;-86
2024/01/01 20:51:13;;;;;;;;;;;;;;;;;;6157909;23;19912;-89
2024/01/01 20:53:40;;;;;;;;;;;;;;;;;;6160816;23;19908;-87
2024/01/01 20:56:09;;;;;;;;;;;;;;;;;;6160642;23;19913;-88
2024/01/01 20:58:34;;;;;;;;;;;;;;;;;;6160629;23;20371;-87
2024/01/01 21:01:00;;;;;;;;;;;;;;;;;;6158721;23;19909;-86
2024/01/01 21:03:26;;;;;;;;;;;;;;;;;;6158397;23;19939;-89
2024/01/01 21:05:52;;;;;;;;;;;;;;;;;;6158640;23;19939;-89
2024/01/01 21:08:17;;;;;;;;;;;;;;;;;;6158482;23;19909;-90
2024/01/01 21:10:44;;;;;;;;;;;;;;;;;;6158771;23;19923;-89
2024/01/01 21:13:10;;;;;;;;;;;;;;;;;;6158540;23;20031;-90
2024/01/01 21:15:35;;;;;;;;;;;;;;;;;;6158552;23;19912;-90
2024/01/01 21:18:01;;;;;;;;;;;;;;;;;;6157032;23;19936;-89
2024/01/01 21:20:28;;;;;;;;;;;;;;;;;;6158644;23;19912;-87
2024/01/01 21:22:54;;;;;;;;;;;;;;;;;;6156494;23;20162;-88
2024/01/01 21:25:21;;;;;;;;;;;;;;;;;;6158624;23;19915;-88
2024/01/01 21:27:47;;;;;;;;;;;;;;;;;;6157936;23;19908;-87
2024/01/01 21:30:15;;;;;;;;;;;;;;;;;;6156671;23;20348;-87
2024/01/01 21:32:40;;;;;;;;;;;;;;;;;;6157817;23;20277;-87
2024/01/01 21:35:07;;;;;;;;;;;;;;;;;;6158125;23;19963;-87
2024/01/01 21:37:33;;;;;;;;;;;;;;;;;;6156660;23;20261;-88
2024/01/01 21:39:58;;;;;;;;;;;;;;;;;;6156050;23;19919;-89
2024/01/01 21:42:23;;;;;;;;;;;;;;;;;;6160193;23;19919;-88
2024/01/01 21:44:49;;;;;;;;;;;;;;;;;;6156641;23;19916;-88
2024/01/01 21:47:14;;;;;;;;;;;;;;;;;;6157934;23;19908;-88
2024/01/01 21:49:43;;;;;;;;;;;;;;;;;;6156285;23;19908;-88
2024/01/01 21:52:08;;;;;;;;;;;;;;;;;;6157927;23;19909;-89
2024/01/01 21:54:36;;;;;;;;;;;;;;;;;;6156670;23;19915;-88
2024/01/01 21:57:02;;;;;;;;;;;;;;;;;;6156554;23;20316;-89
2024/01/01 21:59:27;;;;;;;;;;;;;;;;;;6156493;23;19908;-88
2024/01/01 22:01:52;;;;;;;;;;;;;;;;;;6158055;23;20002;-88
2024/01/01 22:04:18;;;;;;;;;;;;;;;;;;6156557;23;19984;-88
2024/01/01 22:06:43;;;;;;;;;;;;;;;;;;6156408;23;19987;-90
2024/01/01 22:09:09;;;;;;;;;;;;;;;;;;6158163;23;19915;-91
2024/01/01 22:11:34;;;;;;;;;;;;;;;;;;6157965;23;20280;-89
2024/01/01 22:14:02;;;;;;;;;;;;;;;;;;6156661;23;19939;-89
2024/01/01 22:16:27;;;;;;;;;;;;;;;;;;6156624;23;19908;-89
2024/01/01 22:18:52;;;;;;;;;;;;;;;;;;6156309;23;20118;-88
2024/01/01 22:21:18;;;;;;;;;;;;;;;;;;6157792;23;19979;-89
2024/01/01 22:23:44;;;;;;;;;;;;;;;;;;6156269;23;19913;-89
2024/01/01 22:26:16;;;;;;;;;;;;;;;;;;6181366;23;19909;-90
2024/01/01 22:28:44;;;;;;;;;;;;;;;;;;6156249;23;19991;-90
2024/01/01 22:31:11;;;;;;;;;;;;;;;;;;6180928;23;20236;-89
2024/01/01 22:33:36;;;;;;;;;;;;;;;;;;6155863;23;19915;-91
2024/01/01 22:36:05;;;;;;;;;;;;;;;;;;6156372;23;19979;-88
2024/01/01 22:38:30;;;;;;;;;;;;;;;;;;6156348;23;19995;-89
2024/01/01 22:40:56;;;;;;;;;;;;;;;;;;6157662;23;19913;-89
2024/01/01 22:43:22;;;;;;;;;;;;;;;;;;6157513;23;19912;-90
2024/01/01 22:45:47;;;;;;;;;;;;;;;;;;6156268;23;20067;-90
2024/01/01 22:48:12;;;;;;;;;;;;;;;;;;6156270;23;20260;-90
2024/01/01 22:50:38;;;;;;;;;;;;;;;;;;6155847;23;19909;-91
2024/01/01 22:53:03;;;;;;;;;;;;;;;;;;6156939;23;19912;-90
2024/01/01 22:55:29;;;;;;;;;;;;;;;;;;6157023;23;19983;-90
2024/01/01 22:57:54;;;;;;;;;;;;;;;;;;6157814;23;19993;-91
